Archival Weather

Tokyo Intl

Tokyo, Japan (RJTT)

Report from: Tuesday, November 21, 2023 7:30 AM JST
Current time: Saturday, March 2, 2024 6:08 PM JST

Current weather – Weather history – Daily summaries
Weather forecast

Temperature10.0°C (50.0°F)
Wind chill9.1°C (48.5°F)
Dew point2.0°C (35.6°F)
Winds 4 kts (2.1 m/s, 4.6 mph) Vrb
Winds variableWinds variable from North-Northwest (330°) to East-Northeast (70°)
Visibility6.2 mi. (10 km)
Clouds Few clouds 3,000 ft. (914 m)
Altimeter30.24 in.Hg (1024 mB)
Relative humidity58 %
Density altitude-855 ft. (-261 m)
Remarks No significant changes expected in the next two hours
Flight conditions Visual Meteorological Conditions
Raw dataRJTT 202230Z 36004KT 330V070 9999 FEW030 10/02 Q1024 NOSIG RMK 1CU030 A3026
An error has occurred. This application may no longer respond until reloaded. Reload 🗙